Airfield :
LOGIN :

Register | Disclaimer

   EN    FR    IT 

 










Legend :    VFR   Marginal VFR   IFR   Intensive IFR   Very Intensive IFR
Visi :
Ceiling :
>= 8 km
>= 3000ft
5 to 8 km
1000 to 3000 ft
1500m to 5 km
500 to 1000 ft
800 to 1500m
200 to 500 ft
< 800m
< 200 ft
Symbols :   Thunderstorms  Fog  Heavy snow  Heavy precipitations  Wind > 20 kt
SIGMETs :     Misc.  Thunderstorms  Icing  Turbulence  Mountain Waves  Volcanic Ashes







- Airport Elevation : 978 ft
- IATA code : LNZ


LOWL - Linz

CURRENT METAR :
  • 142020Z AUTO 15002KT 9999 FEW060 BKN070 00/M02 Q1000 NOSIG

EXPIRED METARs :
  • 141950Z AUTO 08003KT 040V110 9999 FEW100 BKN120 01/M02 Q1000 NOSIG
  • 141920Z AUTO 03003KT 9999 SCT120 BKN130 00/M02 Q1001 NOSIG
  • 141850Z AUTO 05004KT 020V080 9999 FEW120 BKN200 01/M02 Q1001 NOSIG
  • 141820Z AUTO 04004KT 010V070 9999 FEW050 BKN140 00/M02 Q1002 NOSIG
  • 141750Z AUTO 06002KT 9999 FEW050 BKN060 01/M02 Q1002 NOSIG

TAF TAF LOWL
Valid from the 14 at 18:00 until the 15 at 18:00 UTC


141715Z 1418/1518 27004KT 9999 SCT050 BKN070 TX04/1513Z TNM00/1504Z
TEMPO 1420/1506 VRB02KT 2000 RASN BKN006
BECMG 1505/1507 27010KT
BECMG 1515/1517 VRB02KT
No reported NOTAMs for that airfield.



MET'MAP, your aeronautical weather chart ! - Copyright ORBIFLY December 2007 - Disclaimer

ORBIFLY MET'MAP TEAM :

Programming & Development : Alexandra Zaïnal
Concept & Development : Baudouin d'Aumeries
Co-Development & Prog : Marc-Olivier Méhu
Technical & hardware support : Manuel Goepfert

Contact : metmap@orbifly.com




SOURCES & CREDITS :

   NOAA